sensor_id;sensor_type;location;lat;lon;timestamp;pressure;altitude;pressure_sealevel;temperature;humidity
30636;BME280;17400;52.392;9.750;2024-01-16T00:01:48;99642.38;;;2.15;100.00
30636;BME280;17400;52.392;9.750;2024-01-16T00:04:16;99654.72;;;2.25;100.00
30636;BME280;17400;52.392;9.750;2024-01-16T00:06:44;99660.06;;;2.33;100.00
30636;BME280;17400;52.392;9.750;2024-01-16T00:09:14;99655.72;;;2.32;100.00
30636;BME280;17400;52.392;9.750;2024-01-16T00:11:43;99673.44;;;2.33;100.00
30636;BME280;17400;52.392;9.750;2024-01-16T00:14:11;99667.75;;;2.28;100.00
30636;BME280;17400;52.392;9.750;2024-01-16T00:16:43;99662.88;;;2.31;100.00
30636;BME280;17400;52.392;9.750;2024-01-16T00:19:11;99679.78;;;2.32;100.00
30636;BME280;17400;52.392;9.750;2024-01-16T00:21:39;99687.28;;;2.20;100.00
30636;BME280;17400;52.392;9.750;2024-01-16T00:24:07;99682.13;;;2.19;100.00
30636;BME280;17400;52.392;9.750;2024-01-16T00:26:35;99681.78;;;2.13;100.00
30636;BME280;17400;52.392;9.750;2024-01-16T00:29:04;99682.94;;;2.11;100.00
30636;BME280;17400;52.392;9.750;2024-01-16T00:31:32;99695.78;;;2.07;100.00
30636;BME280;17400;52.392;9.750;2024-01-16T00:34:01;99697.81;;;2.05;100.00
30636;BME280;17400;52.392;9.750;2024-01-16T00:36:28;99696.13;;;2.12;100.00
30636;BME280;17400;52.392;9.750;2024-01-16T00:38:57;99702.97;;;2.15;100.00
30636;BME280;17400;52.392;9.750;2024-01-16T00:41:24;99706.97;;;2.19;100.00
30636;BME280;17400;52.392;9.750;2024-01-16T00:43:53;99710.16;;;2.14;100.00
30636;BME280;17400;52.392;9.750;2024-01-16T00:46:23;99711.63;;;2.09;100.00
30636;BME280;17400;52.392;9.750;2024-01-16T00:48:51;99717.16;;;2.15;100.00
30636;BME280;17400;52.392;9.750;2024-01-16T00:51:19;99712.50;;;2.17;100.00
30636;BME280;17400;52.392;9.750;2024-01-16T00:53:47;99716.50;;;2.13;100.00
30636;BME280;17400;52.392;9.750;2024-01-16T00:56:15;99723.19;;;2.09;100.00
30636;BME280;17400;52.392;9.750;2024-01-16T00:58:42;99737.50;;;2.08;100.00
30636;BME280;17400;52.392;9.750;2024-01-16T01:01:10;99723.19;;;2.09;100.00
30636;BME280;17400;52.392;9.750;2024-01-16T01:03:39;99741.19;;;2.07;100.00
30636;BME280;17400;52.392;9.750;2024-01-16T01:06:07;99737.19;;;2.11;100.00
30636;BME280;17400;52.392;9.750;2024-01-16T01:08:35;99737.34;;;2.18;100.00
30636;BME280;17400;52.392;9.750;2024-01-16T01:11:03;99745.69;;;2.15;100.00
30636;BME280;17400;52.392;9.750;2024-01-16T01:13:31;99750.69;;;2.18;100.00
30636;BME280;17400;52.392;9.750;2024-01-16T01:15:59;99761.38;;;2.10;100.00
30636;BME280;17400;52.392;9.750;2024-01-16T01:18:28;99762.53;;;2.15;100.00
30636;BME280;17400;52.392;9.750;2024-01-16T01:20:57;99758.19;;;2.06;100.00
30636;BME280;17400;52.392;9.750;2024-01-16T01:23:25;99767.38;;;2.04;100.00
30636;BME280;17400;52.392;9.750;2024-01-16T01:25:53;99769.03;;;2.05;100.00
30636;BME280;17400;52.392;9.750;2024-01-16T01:28:21;99772.22;;;2.08;100.00
30636;BME280;17400;52.392;9.750;2024-01-16T01:30:49;99779.06;;;2.11;100.00
30636;BME280;17400;52.392;9.750;2024-01-16T01:33:17;99771.22;;;2.09;100.00
30636;BME280;17400;52.392;9.750;2024-01-16T01:35:45;99780.22;;;2.08;100.00
30636;BME280;17400;52.392;9.750;2024-01-16T01:38:15;99777.91;;;2.13;100.00
30636;BME280;17400;52.392;9.750;2024-01-16T01:40:43;99787.25;;;2.09;100.00
30636;BME280;17400;52.392;9.750;2024-01-16T01:43:17;99787.56;;;2.06;100.00
30636;BME280;17400;52.392;9.750;2024-01-16T01:46:08;99781.06;;;2.09;100.00
30636;BME280;17400;52.392;9.750;2024-01-16T01:48:37;99786.22;;;2.02;100.00
30636;BME280;17400;52.392;9.750;2024-01-16T01:51:06;99787.03;;;1.94;100.00
30636;BME280;17400;52.392;9.750;2024-01-16T01:53:36;99785.06;;;1.96;100.00
30636;BME280;17400;52.392;9.750;2024-01-16T01:56:07;99793.56;;;2.00;100.00
30636;BME280;17400;52.392;9.750;2024-01-16T01:58:36;99782.56;;;1.95;100.00
30636;BME280;17400;52.392;9.750;2024-01-16T02:01:05;99791.06;;;1.98;100.00
30636;BME280;17400;52.392;9.750;2024-01-16T02:03:42;99801.06;;;2.05;100.00
30636;BME280;17400;52.392;9.750;2024-01-16T02:06:11;99791.91;;;1.99;100.00
30636;BME280;17400;52.392;9.750;2024-01-16T02:08:41;99800.25;;;1.96;100.00
30636;BME280;17400;52.392;9.750;2024-01-16T02:11:08;99792.53;;;1.93;100.00
30636;BME280;17400;52.392;9.750;2024-01-16T02:13:37;99800.72;;;1.91;100.00
30636;BME280;17400;52.392;9.750;2024-01-16T02:16:05;99808.25;;;1.96;100.00
30636;BME280;17400;52.392;9.750;2024-01-16T02:18:33;99803.22;;;1.93;100.00
30636;BME280;17400;52.392;9.750;2024-01-16T02:21:05;99808.56;;;1.93;100.00
30636;BME280;17400;52.392;9.750;2024-01-16T02:23:35;99807.22;;;1.97;100.00
30636;BME280;17400;52.392;9.750;2024-01-16T02:26:03;99806.88;;;1.83;100.00
30636;BME280;17400;52.392;9.750;2024-01-16T02:28:32;99810.22;;;1.86;100.00
30636;BME280;17400;52.392;9.750;2024-01-16T02:30:59;99817.06;;;1.88;100.00
30636;BME280;17400;52.392;9.750;2024-01-16T02:33:27;99835.09;;;1.94;100.00
30636;BME280;17400;52.392;9.750;2024-01-16T02:35:56;99836.94;;;1.94;100.00
30636;BME280;17400;52.392;9.750;2024-01-16T02:38:24;99841.94;;;1.97;100.00
30636;BME280;17400;52.392;9.750;2024-01-16T02:40:53;99834.94;;;1.96;100.00
30636;BME280;17400;52.392;9.750;2024-01-16T02:43:22;99842.28;;;1.94;100.00
30636;BME280;17400;52.392;9.750;2024-01-16T02:45:50;99841.59;;;1.92;100.00
30636;BME280;17400;52.392;9.750;2024-01-16T02:48:18;99845.91;;;1.85;100.00
30636;BME280;17400;52.392;9.750;2024-01-16T02:50:47;99849.09;;;1.88;100.00
30636;BME280;17400;52.392;9.750;2024-01-16T02:53:15;99852.75;;;1.87;100.00
30636;BME280;17400;52.392;9.750;2024-01-16T02:55:46;99853.91;;;1.76;100.00
30636;BME280;17400;52.392;9.750;2024-01-16T02:58:15;99862.38;;;1.72;100.00
30636;BME280;17400;52.392;9.750;2024-01-16T03:00:43;99869.41;;;1.81;100.00
30636;BME280;17400;52.392;9.750;2024-01-16T03:03:12;99857.56;;;1.83;100.00
30636;BME280;17400;52.392;9.750;2024-01-16T03:05:41;99861.59;;;1.88;100.00
30636;BME280;17400;52.392;9.750;2024-01-16T03:08:09;99858.53;;;1.74;100.00
30636;BME280;17400;52.392;9.750;2024-01-16T03:10:37;99859.53;;;1.73;100.00
30636;BME280;17400;52.392;9.750;2024-01-16T03:13:05;99857.81;;;1.64;100.00
30636;BME280;17400;52.392;9.750;2024-01-16T03:15:35;99864.84;;;1.65;100.00
30636;BME280;17400;52.392;9.750;2024-01-16T03:18:03;99871.84;;;1.66;100.00
30636;BME280;17400;52.392;9.750;2024-01-16T03:20:31;99872.22;;;1.71;100.00
30636;BME280;17400;52.392;9.750;2024-01-16T03:22:59;99874.03;;;1.71;100.00
30636;BME280;17400;52.392;9.750;2024-01-16T03:25:26;99872.38;;;1.70;100.00
30636;BME280;17400;52.392;9.750;2024-01-16T03:27:57;99876.22;;;1.75;100.00
30636;BME280;17400;52.392;9.750;2024-01-16T03:30:25;99873.72;;;1.74;100.00
30636;BME280;17400;52.392;9.750;2024-01-16T03:32:55;99871.84;;;1.66;100.00
30636;BME280;17400;52.392;9.750;2024-01-16T03:35:23;99869.81;;;1.60;100.00
30636;BME280;17400;52.392;9.750;2024-01-16T03:37:54;99871.13;;;1.56;100.00
30636;BME280;17400;52.392;9.750;2024-01-16T03:40:22;99876.47;;;1.56;100.00
30636;BME280;17400;52.392;9.750;2024-01-16T03:42:50;99874.50;;;1.58;100.00
30636;BME280;17400;52.392;9.750;2024-01-16T03:45:18;99884.31;;;1.57;100.00
30636;BME280;17400;52.392;9.750;2024-01-16T03:47:46;99884.66;;;1.62;100.00
30636;BME280;17400;52.392;9.750;2024-01-16T03:50:15;99892.38;;;1.65;100.00
30636;BME280;17400;52.392;9.750;2024-01-16T03:52:43;99895.50;;;1.61;100.00
30636;BME280;17400;52.392;9.750;2024-01-16T03:55:11;99898.19;;;1.61;100.00
30636;BME280;17400;52.392;9.750;2024-01-16T03:57:39;99908.22;;;1.67;100.00
30636;BME280;17400;52.392;9.750;2024-01-16T04:00:07;99909.22;;;1.66;100.00
30636;BME280;17400;52.392;9.750;2024-01-16T04:02:39;99910.84;;;1.59;100.00
30636;BME280;17400;52.392;9.750;2024-01-16T04:05:07;99906.19;;;1.61;100.00
30636;BME280;17400;52.392;9.750;2024-01-16T04:07:36;99925.00;;;1.59;100.00
30636;BME280;17400;52.392;9.750;2024-01-16T04:10:06;99920.31;;;1.53;100.00
30636;BME280;17400;52.392;9.750;2024-01-16T04:12:34;99920.50;;;1.60;100.00
30636;BME280;17400;52.392;9.750;2024-01-16T04:15:02;99916.66;;;1.54;100.00
30636;BME280;17400;52.392;9.750;2024-01-16T04:17:30;99924.50;;;1.56;100.00
30636;BME280;17400;52.392;9.750;2024-01-16T04:19:58;99922.31;;;1.51;100.00
30636;BME280;17400;52.392;9.750;2024-01-16T04:22:25;99925.44;;;1.46;100.00
30636;BME280;17400;52.392;9.750;2024-01-16T04:24:55;99927.13;;;1.47;100.00
30636;BME280;17400;52.392;9.750;2024-01-16T04:27:23;99930.16;;;1.53;100.00
30636;BME280;17400;52.392;9.750;2024-01-16T04:29:51;99922.50;;;1.58;100.00
30636;BME280;17400;52.392;9.750;2024-01-16T04:32:19;99925.22;;;1.66;100.00
30636;BME280;17400;52.392;9.750;2024-01-16T04:34:47;99920.84;;;1.57;100.00
30636;BME280;17400;52.392;9.750;2024-01-16T04:37:15;99921.53;;;1.59;100.00
30636;BME280;17400;52.392;9.750;2024-01-16T04:39:43;99920.09;;;1.46;100.00
30636;BME280;17400;52.392;9.750;2024-01-16T04:42:12;99921.81;;;1.56;100.00
30636;BME280;17400;52.392;9.750;2024-01-16T04:44:40;99920.50;;;1.60;100.00
30636;BME280;17400;52.392;9.750;2024-01-16T04:47:08;99916.19;;;1.59;100.00
30636;BME280;17400;52.392;9.750;2024-01-16T04:49:36;99911.94;;;1.48;100.00
30636;BME280;17400;52.392;9.750;2024-01-16T04:52:04;99926.13;;;1.48;100.00
30636;BME280;17400;52.392;9.750;2024-01-16T04:54:32;99924.78;;;1.44;100.00
30636;BME280;17400;52.392;9.750;2024-01-16T04:57:00;99922.41;;;1.41;100.00
30636;BME280;17400;52.392;9.750;2024-01-16T04:59:29;99926.13;;;1.48;100.00
30636;BME280;17400;52.392;9.750;2024-01-16T05:01:58;99923.75;;;1.45;100.00
30636;BME280;17400;52.392;9.750;2024-01-16T05:04:26;99930.34;;;1.33;100.00
30636;BME280;17400;52.392;9.750;2024-01-16T05:06:53;99925.72;;;1.35;100.00
30636;BME280;17400;52.392;9.750;2024-01-16T05:09:21;99924.91;;;1.43;100.00
30636;BME280;17400;52.392;9.750;2024-01-16T05:11:49;99927.06;;;1.39;100.00
30636;BME280;17400;52.392;9.750;2024-01-16T05:14:17;99923.88;;;1.36;100.00
30636;BME280;17400;52.392;9.750;2024-01-16T05:16:46;99927.06;;;1.39;100.00
30636;BME280;17400;52.392;9.750;2024-01-16T05:19:14;99932.56;;;1.38;100.00
30636;BME280;17400;52.392;9.750;2024-01-16T05:21:44;99930.03;;;1.36;100.00
30636;BME280;17400;52.392;9.750;2024-01-16T05:24:12;99923.88;;;1.36;100.00
30636;BME280;17400;52.392;9.750;2024-01-16T05:26:40;99929.25;;;1.44;100.00
30636;BME280;17400;52.392;9.750;2024-01-16T05:29:08;99934.50;;;1.54;100.00
30636;BME280;17400;52.392;9.750;2024-01-16T05:31:39;99930.97;;;1.53;100.00
30636;BME280;17400;52.392;9.750;2024-01-16T05:34:09;99938.03;;;1.62;100.00
30636;BME280;17400;52.392;9.750;2024-01-16T05:36:40;99931.25;;;1.68;100.00
30636;BME280;17400;52.392;9.750;2024-01-16T05:39:08;99934.91;;;1.67;100.00
30636;BME280;17400;52.392;9.750;2024-01-16T05:41:37;99927.41;;;1.71;100.00
30636;BME280;17400;52.392;9.750;2024-01-16T05:44:05;99928.72;;;1.66;100.00
30636;BME280;17400;52.392;9.750;2024-01-16T05:46:34;99939.09;;;1.70;100.00
30636;BME280;17400;52.392;9.750;2024-01-16T05:49:01;99930.72;;;1.64;100.00
30636;BME280;17400;52.392;9.750;2024-01-16T05:51:31;99931.69;;;1.63;100.00
30636;BME280;17400;52.392;9.750;2024-01-16T05:53:59;99935.69;;;1.59;100.00
30636;BME280;17400;52.392;9.750;2024-01-16T05:56:27;99936.50;;;1.60;100.00
30636;BME280;17400;52.392;9.750;2024-01-16T05:58:56;99933.84;;;1.60;100.00
30636;BME280;17400;52.392;9.750;2024-01-16T06:01:23;99945.81;;;1.56;100.00
30636;BME280;17400;52.392;9.750;2024-01-16T06:03:51;99946.09;;;1.44;100.00
30636;BME280;17400;52.392;9.750;2024-01-16T06:06:19;99946.78;;;1.46;100.00
30636;BME280;17400;52.392;9.750;2024-01-16T06:08:48;99944.16;;;1.55;100.00
30636;BME280;17400;52.392;9.750;2024-01-16T06:11:16;99947.31;;;1.50;100.00
30636;BME280;17400;52.392;9.750;2024-01-16T06:13:45;99944.16;;;1.55;100.00
30636;BME280;17400;52.392;9.750;2024-01-16T06:16:13;99938.16;;;1.53;100.00
30636;BME280;17400;52.392;9.750;2024-01-16T06:18:41;99931.81;;;1.54;100.00
30636;BME280;17400;52.392;9.750;2024-01-16T06:21:09;99932.13;;;1.50;100.00
30636;BME280;17400;52.392;9.750;2024-01-16T06:23:38;99925.28;;;1.48;100.00
30636;BME280;17400;52.392;9.750;2024-01-16T06:26:09;99926.28;;;1.47;100.00
30636;BME280;17400;52.392;9.750;2024-01-16T06:28:37;99932.97;;;1.51;100.00
30636;BME280;17400;52.392;9.750;2024-01-16T06:31:05;99935.28;;;1.46;100.00
30636;BME280;17400;52.392;9.750;2024-01-16T06:33:33;99936.31;;;1.53;100.00
30636;BME280;17400;52.392;9.750;2024-01-16T06:36:02;99929.78;;;1.47;100.00
30636;BME280;17400;52.392;9.750;2024-01-16T06:38:31;99933.63;;;1.53;100.00
30636;BME280;17400;52.392;9.750;2024-01-16T06:40:59;99939.88;;;1.62;100.00
30636;BME280;17400;52.392;9.750;2024-01-16T06:43:29;99939.03;;;1.61;100.00
30636;BME280;17400;52.392;9.750;2024-01-16T06:45:58;99941.91;;;1.68;100.00
30636;BME280;17400;52.392;9.750;2024-01-16T06:48:26;99945.09;;;1.72;100.00
30636;BME280;17400;52.392;9.750;2024-01-16T06:50:57;99936.91;;;1.73;100.00
30636;BME280;17400;52.392;9.750;2024-01-16T06:53:26;99935.56;;;1.69;100.00
30636;BME280;17400;52.392;9.750;2024-01-16T06:55:56;99952.94;;;1.73;100.00
30636;BME280;17400;52.392;9.750;2024-01-16T06:58:26;99941.09;;;1.76;100.00
30636;BME280;17400;52.392;9.750;2024-01-16T07:00:55;99948.75;;;1.71;100.00
30636;BME280;17400;52.392;9.750;2024-01-16T07:03:23;99943.56;;;1.69;100.00
30636;BME280;17400;52.392;9.750;2024-01-16T07:05:51;99943.06;;;1.65;100.00
30636;BME280;17400;52.392;9.750;2024-01-16T07:08:19;99939.84;;;1.54;100.00
30636;BME280;17400;52.392;9.750;2024-01-16T07:10:48;99941.03;;;1.59;100.00
30636;BME280;17400;52.392;9.750;2024-01-16T07:13:16;99956.22;;;1.59;100.00
30636;BME280;17400;52.392;9.750;2024-01-16T07:15:44;99958.88;;;1.59;100.00
30636;BME280;17400;52.392;9.750;2024-01-16T07:18:13;99960.34;;;1.61;100.00
30636;BME280;17400;52.392;9.750;2024-01-16T07:20:41;99967.69;;;1.59;100.00
30636;BME280;17400;52.392;9.750;2024-01-16T07:23:09;99966.56;;;1.62;100.00
30636;BME280;17400;52.392;9.750;2024-01-16T07:25:37;99962.56;;;1.66;100.00
30636;BME280;17400;52.392;9.750;2024-01-16T07:28:06;99964.22;;;1.59;100.00
30636;BME280;17400;52.392;9.750;2024-01-16T07:30:35;99969.22;;;1.62;100.00
30636;BME280;17400;52.392;9.750;2024-01-16T07:33:03;99964.72;;;1.62;100.00
30636;BME280;17400;52.392;9.750;2024-01-16T07:35:33;99969.88;;;1.64;100.00
30636;BME280;17400;52.392;9.750;2024-01-16T07:38:01;99962.25;;;1.69;100.00
30636;BME280;17400;52.392;9.750;2024-01-16T07:40:31;99971.41;;;1.66;100.00
30636;BME280;17400;52.392;9.750;2024-01-16T07:42:59;99972.25;;;1.67;100.00
30636;BME280;17400;52.392;9.750;2024-01-16T07:45:27;99971.03;;;1.61;100.00
30636;BME280;17400;52.392;9.750;2024-01-16T07:47:55;99960.06;;;1.64;100.00
30636;BME280;17400;52.392;9.750;2024-01-16T07:50:26;99974.41;;;1.63;100.00
30636;BME280;17400;52.392;9.750;2024-01-16T07:52:55;99977.28;;;1.70;100.00
30636;BME280;17400;52.392;9.750;2024-01-16T07:55:23;99971.59;;;1.73;100.00
30636;BME280;17400;52.392;9.750;2024-01-16T07:57:51;99969.78;;;1.74;100.00
30636;BME280;17400;52.392;9.750;2024-01-16T08:00:19;99973.28;;;1.74;100.00
30636;BME280;17400;52.392;9.750;2024-01-16T08:02:48;99975.66;;;1.77;100.00
30636;BME280;17400;52.392;9.750;2024-01-16T08:05:16;99982.03;;;1.85;100.00
30636;BME280;17400;52.392;9.750;2024-01-16T08:07:44;99979.00;;;1.79;100.00
30636;BME280;17400;52.392;9.750;2024-01-16T08:10:14;99973.66;;;1.79;100.00
30636;BME280;17400;52.392;9.750;2024-01-16T08:12:45;99979.28;;;1.68;100.00
30636;BME280;17400;52.392;9.750;2024-01-16T08:15:13;99975.44;;;1.71;100.00
30636;BME280;17400;52.392;9.750;2024-01-16T08:17:41;99974.44;;;1.72;100.00
30636;BME280;17400;52.392;9.750;2024-01-16T08:20:10;99978.47;;;1.76;100.00
30636;BME280;17400;52.392;9.750;2024-01-16T08:22:38;99970.31;;;1.77;100.00
30636;BME280;17400;52.392;9.750;2024-01-16T08:25:06;99973.50;;;1.81;100.00
30636;BME280;17400;52.392;9.750;2024-01-16T08:27:36;99978.81;;;1.81;100.00
30636;BME280;17400;52.392;9.750;2024-01-16T08:30:06;99974.84;;;1.85;100.00
30636;BME280;17400;52.392;9.750;2024-01-16T08:32:34;99981.66;;;1.79;100.00
30636;BME280;17400;52.392;9.750;2024-01-16T08:35:02;99985.53;;;1.85;100.00
30636;BME280;17400;52.392;9.750;2024-01-16T08:37:32;99983.69;;;1.86;100.00
30636;BME280;17400;52.392;9.750;2024-01-16T08:40:01;99990.44;;;1.98;100.00
30636;BME280;17400;52.392;9.750;2024-01-16T08:42:30;99979.44;;;2.01;100.00
30636;BME280;17400;52.392;9.750;2024-01-16T08:45:00;99980.38;;;1.92;100.00
30636;BME280;17400;52.392;9.750;2024-01-16T08:47:28;99984.06;;;1.91;100.00
30636;BME280;17400;52.392;9.750;2024-01-16T08:49:56;99987.41;;;1.93;100.00
30636;BME280;17400;52.392;9.750;2024-01-16T08:52:24;99986.94;;;1.97;100.00
30636;BME280;17400;52.392;9.750;2024-01-16T08:54:52;99986.44;;;2.02;100.00
30636;BME280;17400;52.392;9.750;2024-01-16T08:57:20;99976.91;;;1.99;100.00
30636;BME280;17400;52.392;9.750;2024-01-16T08:59:51;99984.72;;;1.93;100.00
30636;BME280;17400;52.392;9.750;2024-01-16T09:02:21;99980.94;;;2.04;100.00
30636;BME280;17400;52.392;9.750;2024-01-16T09:04:49;99988.38;;;1.92;100.00
30636;BME280;17400;52.392;9.750;2024-01-16T09:07:17;99978.56;;;1.92;100.00
30636;BME280;17400;52.392;9.750;2024-01-16T09:09:46;99981.41;;;1.91;100.00
30636;BME280;17400;52.392;9.750;2024-01-16T09:12:14;99976.06;;;1.91;100.00
30636;BME280;17400;52.392;9.750;2024-01-16T09:14:43;99979.38;;;1.93;100.00
30636;BME280;17400;52.392;9.750;2024-01-16T09:17:10;99979.09;;;1.96;100.00
30636;BME280;17400;52.392;9.750;2024-01-16T09:19:40;99977.63;;;2.02;100.00
30636;BME280;17400;52.392;9.750;2024-01-16T09:22:08;99977.84;;;2.16;100.00
30636;BME280;17400;52.392;9.750;2024-01-16T09:24:37;99974.84;;;2.20;100.00
30636;BME280;17400;52.392;9.750;2024-01-16T09:27:04;99973.81;;;2.12;100.00
30636;BME280;17400;52.392;9.750;2024-01-16T09:29:33;99978.19;;;2.22;100.00
30636;BME280;17400;52.392;9.750;2024-01-16T09:32:01;99983.88;;;2.19;100.00
30636;BME280;17400;52.392;9.750;2024-01-16T09:34:29;99981.84;;;2.21;100.00
30636;BME280;17400;52.392;9.750;2024-01-16T09:36:59;99983.00;;;2.18;100.00
30636;BME280;17400;52.392;9.750;2024-01-16T09:39:29;99982.34;;;2.16;100.00
30636;BME280;17400;52.392;9.750;2024-01-16T09:41:59;99982.38;;;2.24;100.00
30636;BME280;17400;52.392;9.750;2024-01-16T09:44:27;99981.56;;;2.24;100.00
30636;BME280;17400;52.392;9.750;2024-01-16T09:46:57;99980.59;;;2.33;100.00
30636;BME280;17400;52.392;9.750;2024-01-16T09:49:27;99979.72;;;2.32;100.00
30636;BME280;17400;52.392;9.750;2024-01-16T09:51:55;99984.28;;;2.40;100.00
30636;BME280;17400;52.392;9.750;2024-01-16T09:54:27;99986.94;;;2.40;100.00
30636;BME280;17400;52.392;9.750;2024-01-16T09:56:58;99989.44;;;2.42;100.00
30636;BME280;17400;52.392;9.750;2024-01-16T09:59:27;99994.50;;;2.45;100.00
30636;BME280;17400;52.392;9.750;2024-01-16T10:01:56;99998.34;;;2.59;100.00
30636;BME280;17400;52.392;9.750;2024-01-16T10:04:25;99997.38;;;2.60;100.00
30636;BME280;17400;52.392;9.750;2024-01-16T10:06:56;99993.19;;;2.65;100.00
30636;BME280;17400;52.392;9.750;2024-01-16T10:09:26;99998.34;;;2.59;100.00
30636;BME280;17400;52.392;9.750;2024-01-16T10:11:54;99994.06;;;2.66;100.00
30636;BME280;17400;52.392;9.750;2024-01-16T10:14:23;99999.59;;;2.81;100.00
30636;BME280;17400;52.392;9.750;2024-01-16T10:16:56;99991.22;;;2.92;100.00
30636;BME280;17400;52.392;9.750;2024-01-16T10:19:26;99988.41;;;2.94;100.00
30636;BME280;17400;52.392;9.750;2024-01-16T10:22:11;99997.59;;;2.91;100.00
30636;BME280;17400;52.392;9.750;2024-01-16T10:24:41;99995.75;;;3.00;100.00
30636;BME280;17400;52.392;9.750;2024-01-16T10:27:09;99992.44;;;3.06;100.00
30636;BME280;17400;52.392;9.750;2024-01-16T10:29:37;99997.25;;;3.03;100.00
30636;BME280;17400;52.392;9.750;2024-01-16T10:32:28;99994.94;;;2.91;100.00
30636;BME280;17400;52.392;9.750;2024-01-16T10:35:04;99995.91;;;2.90;100.00
30636;BME280;17400;52.392;9.750;2024-01-16T10:37:46;100002.09;;;2.91;100.00
30636;BME280;17400;52.392;9.750;2024-01-16T10:40:16;100003.78;;;2.83;100.00
30636;BME280;17400;52.392;9.750;2024-01-16T10:42:57;100002.44;;;2.88;100.00
30636;BME280;17400;52.392;9.750;2024-01-16T10:45:25;100003.09;;;2.90;100.00
30636;BME280;17400;52.392;9.750;2024-01-16T10:48:00;100006.78;;;2.89;100.00
30636;BME280;17400;52.392;9.750;2024-01-16T10:50:30;99998.72;;;2.80;100.00
30636;BME280;17400;52.392;9.750;2024-01-16T10:53:00;100000.06;;;2.76;100.00
30636;BME280;17400;52.392;9.750;2024-01-16T10:55:31;99993.25;;;2.82;100.00
30636;BME280;17400;52.392;9.750;2024-01-16T10:58:01;99999.59;;;2.81;100.00
30636;BME280;17400;52.392;9.750;2024-01-16T11:00:31;100003.25;;;2.88;100.00
30636;BME280;17400;52.392;9.750;2024-01-16T11:03:05;100012.44;;;2.86;100.00
30636;BME280;17400;52.392;9.750;2024-01-16T11:05:34;100003.44;;;2.87;100.00
30636;BME280;17400;52.392;9.750;2024-01-16T11:08:04;100010.47;;;2.96;100.00
30636;BME280;17400;52.392;9.750;2024-01-16T11:10:35;100007.44;;;2.99;100.00
30636;BME280;17400;52.392;9.750;2024-01-16T11:13:05;100010.47;;;2.96;100.00
30636;BME280;17400;52.392;9.750;2024-01-16T11:15:34;100005.47;;;3.01;100.00
30636;BME280;17400;52.392;9.750;2024-01-16T11:18:05;100007.13;;;3.02;100.00
30636;BME280;17400;52.392;9.750;2024-01-16T11:20:34;100005.81;;;3.06;100.00
30636;BME280;17400;52.392;9.750;2024-01-16T11:23:23;100007.31;;;3.09;100.00
30636;BME280;17400;52.392;9.750;2024-01-16T11:25:52;100007.66;;;3.06;100.00
30636;BME280;17400;52.392;9.750;2024-01-16T11:28:27;100018.00;;;3.00;100.00
30636;BME280;17400;52.392;9.750;2024-01-16T11:30:55;100017.00;;;3.10;100.00
30636;BME280;17400;52.392;9.750;2024-01-16T11:33:43;100012.81;;;3.07;100.00
30636;BME280;17400;52.392;9.750;2024-01-16T11:36:42;100015.50;;;3.07;100.00
30636;BME280;17400;52.392;9.750;2024-01-16T11:39:10;100002.44;;;3.04;100.00
30636;BME280;17400;52.392;9.750;2024-01-16T11:41:49;100007.31;;;3.00;100.00
30636;BME280;17400;52.392;9.750;2024-01-16T11:44:41;100012.66;;;3.09;100.00
30636;BME280;17400;52.392;9.750;2024-01-16T11:47:15;100012.16;;;3.05;100.00
30636;BME280;17400;52.392;9.750;2024-01-16T11:49:43;100014.81;;;2.97;100.00
30636;BME280;17400;52.392;9.750;2024-01-16T11:52:12;100008.78;;;2.87;100.00
30636;BME280;17400;52.392;9.750;2024-01-16T11:54:40;100021.81;;;2.90;100.00
30636;BME280;17400;52.392;9.750;2024-01-16T11:57:39;100027.31;;;2.88;100.00
30636;BME280;17400;52.392;9.750;2024-01-16T12:00:19;100030.50;;;2.83;100.00
30636;BME280;17400;52.392;9.750;2024-01-16T12:02:51;100024.63;;;2.80;100.00
30636;BME280;17400;52.392;9.750;2024-01-16T12:05:20;100026.31;;;2.81;100.00
30636;BME280;17400;52.392;9.750;2024-01-16T12:07:51;100031.16;;;2.77;100.00
30636;BME280;17400;52.392;9.750;2024-01-16T12:10:21;100014.09;;;2.78;100.00
30636;BME280;17400;52.392;9.750;2024-01-16T12:12:56;100014.47;;;2.83;100.00
30636;BME280;17400;52.392;9.750;2024-01-16T12:15:30;100015.13;;;2.86;100.00
30636;BME280;17400;52.392;9.750;2024-01-16T12:18:00;100010.81;;;2.93;100.00
30636;BME280;17400;52.392;9.750;2024-01-16T12:20:29;100015.97;;;2.86;100.00
30636;BME280;17400;52.392;9.750;2024-01-16T12:23:02;100009.75;;;2.77;100.00
30636;BME280;17400;52.392;9.750;2024-01-16T12:25:32;100009.25;;;2.74;100.00
30636;BME280;17400;52.392;9.750;2024-01-16T12:28:22;100008.94;;;2.77;100.00
30636;BME280;17400;52.392;9.750;2024-01-16T12:30:59;100013.94;;;2.88;100.00
30636;BME280;17400;52.392;9.750;2024-01-16T12:33:28;100008.28;;;2.91;100.00
30636;BME280;17400;52.392;9.750;2024-01-16T12:36:02;100013.28;;;2.86;100.00
30636;BME280;17400;52.392;9.750;2024-01-16T12:38:32;100013.13;;;2.88;100.00
30636;BME280;17400;52.392;9.750;2024-01-16T12:41:00;100012.97;;;2.97;100.00
30636;BME280;17400;52.392;9.750;2024-01-16T12:43:32;100001.63;;;2.95;100.00
30636;BME280;17400;52.392;9.750;2024-01-16T12:46:00;100004.78;;;2.99;100.00
30636;BME280;17400;52.392;9.750;2024-01-16T12:48:29;99995.44;;;3.03;100.00
30636;BME280;17400;52.392;9.750;2024-01-16T12:51:00;99993.75;;;3.02;100.00
30636;BME280;17400;52.392;9.750;2024-01-16T12:53:31;99999.13;;;3.02;100.00
30636;BME280;17400;52.392;9.750;2024-01-16T12:56:01;99992.91;;;3.02;100.00
30636;BME280;17400;52.392;9.750;2024-01-16T12:58:36;99987.91;;;2.98;100.00
30636;BME280;17400;52.392;9.750;2024-01-16T13:01:24;99992.22;;;2.83;100.00
30636;BME280;17400;52.392;9.750;2024-01-16T13:04:05;99991.06;;;2.86;100.00
30636;BME280;17400;52.392;9.750;2024-01-16T13:06:34;99987.91;;;2.90;100.00
30636;BME280;17400;52.392;9.750;2024-01-16T13:09:07;99982.22;;;2.93;100.00
30636;BME280;17400;52.392;9.750;2024-01-16T13:11:45;99981.38;;;2.85;100.00